createdAt,value
2022-08-31T13:17:39.599Z,34.50
2022-08-31T13:20:20.147Z,33.80
2022-08-31T13:23:00.253Z,33.80
2022-08-31T13:25:38.737Z,33.10
2022-08-31T13:28:13.808Z,34.20
2022-08-31T13:30:55.082Z,35.30
2022-08-31T13:33:31.778Z,34.20
2022-08-31T13:36:32.508Z,35.00
2022-08-31T13:39:16.793Z,33.80
2022-08-31T13:42:20.701Z,34.20
2022-08-31T13:45:03.505Z,34.30
2022-08-31T13:47:47.596Z,34.50
2022-08-31T13:50:53.600Z,34.40
2022-08-31T13:53:46.397Z,34.90
2022-08-31T13:56:47.763Z,35.40
2022-08-31T13:59:23.121Z,35.10
2022-08-31T14:02:16.501Z,34.20
2022-08-31T14:04:46.484Z,35.30
2022-08-31T14:07:38.937Z,34.10
2022-08-31T14:10:24.266Z,34.10
2022-08-31T14:13:14.201Z,35.20
2022-08-31T14:15:58.154Z,35.00
2022-08-31T14:18:40.639Z,35.20
2022-08-31T14:24:01.090Z,35.50
2022-08-31T14:26:43.170Z,35.70
2022-08-31T14:29:16.659Z,34.50
2022-08-31T14:31:54.878Z,34.60
2022-08-31T14:34:28.085Z,34.90
2022-08-31T14:37:19.540Z,34.90
2022-08-31T14:40:07.549Z,34.10
2022-08-31T14:42:38.633Z,35.10
2022-08-31T14:45:20.108Z,35.10
2022-08-31T14:47:52.184Z,35.10
2022-08-31T14:50:26.361Z,34.70
2022-08-31T14:52:57.482Z,34.70
2022-08-31T14:55:28.205Z,35.00
2022-08-31T14:58:12.085Z,35.50
2022-08-31T15:00:49.811Z,34.10
2022-08-31T15:03:24.390Z,35.80
2022-08-31T15:05:52.504Z,34.50
2022-08-31T15:13:33.319Z,33.80
2022-08-31T15:16:04.026Z,34.80
2022-08-31T15:18:35.930Z,34.60
2022-08-31T15:21:06.105Z,34.80
2022-08-31T15:23:36.776Z,34.60
2022-08-31T15:26:10.920Z,34.70
2022-08-31T15:28:42.158Z,34.60
2022-08-31T15:31:24.228Z,34.50
2022-08-31T15:33:55.193Z,34.50
2022-08-31T15:39:21.652Z,33.80
2022-08-31T15:47:06.806Z,34.10
2022-08-31T15:49:37.704Z,34.70
2022-08-31T15:52:13.429Z,34.10
2022-08-31T16:02:20.303Z,34.90
2022-08-31T16:10:21.520Z,33.10
2022-08-31T16:20:27.156Z,32.20
2022-08-31T16:22:58.633Z,31.40
2022-08-31T16:25:30.378Z,32.90
2022-08-31T16:28:20.653Z,31.60
2022-08-31T16:33:20.663Z,32.50
2022-08-31T16:56:03.798Z,31.40
2022-08-31T17:01:27.248Z,30.20
2022-08-31T17:04:07.467Z,29.60
2022-08-31T17:06:39.044Z,30.70
2022-08-31T17:09:16.113Z,30.50
2022-08-31T17:11:58.539Z,30.70
2022-08-31T17:14:43.346Z,29.10
2022-08-31T17:17:19.274Z,29.00
2022-08-31T17:22:25.541Z,27.60
2022-08-31T17:27:27.204Z,29.70
2022-08-31T17:29:56.064Z,27.40
2022-08-31T17:37:32.273Z,27.20
2022-08-31T17:45:36.843Z,26.80
2022-08-31T18:08:23.800Z,24.20
2022-08-31T18:10:53.342Z,24.30
2022-08-31T18:13:24.305Z,23.50
2022-08-31T18:31:11.666Z,21.50
2022-08-31T18:36:11.931Z,21.90
2022-08-31T18:59:09.075Z,19.90
2022-08-31T19:04:07.437Z,19.60
2022-08-31T19:09:11.675Z,19.10
2022-08-31T19:11:51.611Z,18.80
2022-08-31T19:14:23.263Z,17.60
2022-08-31T19:26:59.378Z,18.70
2022-08-31T19:29:31.146Z,19.10
2022-08-31T19:32:05.986Z,17.40
2022-08-31T19:37:07.767Z,18.10
2022-08-31T19:39:37.508Z,17.00
2022-08-31T19:42:08.834Z,16.50
2022-08-31T20:45:34.885Z,15.00
2022-08-31T20:48:29.097Z,15.40
2022-08-31T20:56:17.178Z,15.10
2022-08-31T20:58:46.807Z,14.70
2022-08-31T21:08:42.429Z,15.80
2022-08-31T21:18:48.685Z,14.10
2022-08-31T21:21:17.635Z,13.20
2022-08-31T21:23:47.733Z,13.80
2022-08-31T21:26:24.319Z,14.90
2022-08-31T21:29:17.950Z,13.70
2022-08-31T21:51:56.762Z,14.40
2022-08-31T21:54:28.525Z,13.00
2022-08-31T21:57:02.565Z,14.20
2022-08-31T22:02:11.586Z,12.50
2022-08-31T22:04:43.642Z,13.20
2022-08-31T22:20:13.010Z,12.80
2022-08-31T23:24:52.650Z,13.10
2022-08-31T23:27:22.480Z,12.40
2022-08-31T23:29:56.481Z,13.90
2022-08-31T23:32:27.973Z,12.80
2022-08-31T23:37:27.675Z,12.00
2022-08-31T23:39:58.226Z,13.00
2022-08-31T23:47:32.933Z,13.00
